sensor_id;sensor_type;location;lat;lon;timestamp;pressure;altitude;pressure_sealevel;temperature;humidity
61205;BME280;47068;55.780;37.520;2023-12-20T00:00:36;98144.06;;;5.56;82.36
61205;BME280;47068;55.780;37.520;2023-12-20T00:03:02;98153.94;;;5.54;81.80
61205;BME280;47068;55.780;37.520;2023-12-20T00:05:28;98143.41;;;5.54;82.36
61205;BME280;47068;55.780;37.520;2023-12-20T00:07:53;98146.09;;;5.46;82.23
61205;BME280;47068;55.780;37.520;2023-12-20T00:10:19;98143.47;;;5.38;82.13
61205;BME280;47068;55.780;37.520;2023-12-20T00:12:44;98141.50;;;5.32;82.13
61205;BME280;47068;55.780;37.520;2023-12-20T00:15:09;98142.66;;;5.29;82.72
61205;BME280;47068;55.780;37.520;2023-12-20T00:17:35;98149.41;;;5.32;82.46
61205;BME280;47068;55.780;37.520;2023-12-20T00:20:00;98166.84;;;5.41;83.01
61205;BME280;47068;55.780;37.520;2023-12-20T00:22:25;98168.81;;;5.47;82.86
61205;BME280;47068;55.780;37.520;2023-12-20T00:24:51;98164.84;;;5.51;82.47
61205;BME280;47068;55.780;37.520;2023-12-20T00:27:16;98163.81;;;5.60;81.90
61205;BME280;47068;55.780;37.520;2023-12-20T00:29:41;98152.25;;;5.69;81.83
61205;BME280;47068;55.780;37.520;2023-12-20T00:32:08;98149.75;;;5.76;81.01
61205;BME280;47068;55.780;37.520;2023-12-20T00:34:33;98148.75;;;5.85;80.51
61205;BME280;47068;55.780;37.520;2023-12-20T00:36:58;98161.94;;;5.85;79.96
61205;BME280;47068;55.780;37.520;2023-12-20T00:39:24;98164.72;;;5.83;79.80
61205;BME280;47068;55.780;37.520;2023-12-20T00:41:49;98162.44;;;5.88;80.45
61205;BME280;47068;55.780;37.520;2023-12-20T00:44:15;98167.50;;;5.98;80.48
61205;BME280;47068;55.780;37.520;2023-12-20T00:46:40;98170.16;;;5.98;79.61
61205;BME280;47068;55.780;37.520;2023-12-20T00:49:05;98173.25;;;6.02;79.41
61205;BME280;47068;55.780;37.520;2023-12-20T00:51:31;98172.94;;;6.05;79.30
61205;BME280;47068;55.780;37.520;2023-12-20T00:53:56;98158.75;;;6.06;79.21
61205;BME280;47068;55.780;37.520;2023-12-20T00:56:22;98161.38;;;6.06;79.61
61205;BME280;47068;55.780;37.520;2023-12-20T00:58:47;98167.31;;;6.08;79.33
61205;BME280;47068;55.780;37.520;2023-12-20T01:01:12;98153.47;;;6.06;79.33
61205;BME280;47068;55.780;37.520;2023-12-20T01:03:38;98149.47;;;6.10;79.04
61205;BME280;47068;55.780;37.520;2023-12-20T01:06:03;98149.34;;;6.03;78.72
61205;BME280;47068;55.780;37.520;2023-12-20T01:08:29;98144.44;;;5.92;78.81
61205;BME280;47068;55.780;37.520;2023-12-20T01:10:55;98149.56;;;5.85;78.96
61205;BME280;47068;55.780;37.520;2023-12-20T01:13:21;98146.28;;;5.75;79.56
61205;BME280;47068;55.780;37.520;2023-12-20T01:15:46;98131.84;;;5.63;79.60
61205;BME280;47068;55.780;37.520;2023-12-20T01:18:12;98132.81;;;5.62;80.08
61205;BME280;47068;55.780;37.520;2023-12-20T01:20:37;98134.31;;;5.65;80.52
61205;BME280;47068;55.780;37.520;2023-12-20T01:23:03;98125.72;;;5.63;80.08
61205;BME280;47068;55.780;37.520;2023-12-20T01:25:28;98133.34;;;5.58;80.07
61205;BME280;47068;55.780;37.520;2023-12-20T01:27:53;98130.72;;;5.49;80.85
61205;BME280;47068;55.780;37.520;2023-12-20T01:30:18;98130.91;;;5.40;80.72
61205;BME280;47068;55.780;37.520;2023-12-20T01:32:44;98126.97;;;5.36;81.29
61205;BME280;47068;55.780;37.520;2023-12-20T01:35:09;98132.72;;;5.39;81.83
61205;BME280;47068;55.780;37.520;2023-12-20T01:37:34;98129.75;;;5.42;81.37
61205;BME280;47068;55.780;37.520;2023-12-20T01:40:00;98133.06;;;5.36;80.96
61205;BME280;47068;55.780;37.520;2023-12-20T01:42:25;98126.47;;;5.40;81.57
61205;BME280;47068;55.780;37.520;2023-12-20T01:44:50;98112.13;;;5.43;81.03
61205;BME280;47068;55.780;37.520;2023-12-20T01:47:16;98107.50;;;5.45;81.12
61205;BME280;47068;55.780;37.520;2023-12-20T01:49:41;98103.56;;;5.41;81.12
61205;BME280;47068;55.780;37.520;2023-12-20T01:52:06;98101.44;;;5.36;80.48
61205;BME280;47068;55.780;37.520;2023-12-20T01:54:32;98094.19;;;5.30;80.92
61205;BME280;47068;55.780;37.520;2023-12-20T01:56:58;98102.28;;;5.21;80.58
61205;BME280;47068;55.780;37.520;2023-12-20T01:59:24;98099.50;;;5.14;81.19
61205;BME280;47068;55.780;37.520;2023-12-20T02:01:49;98118.94;;;5.13;81.76
61205;BME280;47068;55.780;37.520;2023-12-20T02:04:15;98113.34;;;5.16;81.39
61205;BME280;47068;55.780;37.520;2023-12-20T02:06:40;98113.66;;;5.29;81.67
61205;BME280;47068;55.780;37.520;2023-12-20T02:09:07;98110.47;;;5.42;80.73
61205;BME280;47068;55.780;37.520;2023-12-20T02:11:33;98109.09;;;5.54;80.57
61205;BME280;47068;55.780;37.520;2023-12-20T02:14:00;98112.25;;;5.58;80.42
61205;BME280;47068;55.780;37.520;2023-12-20T02:16:26;98095.41;;;5.67;79.29
61205;BME280;47068;55.780;37.520;2023-12-20T02:18:51;98068.50;;;5.71;79.25
61205;BME280;47068;55.780;37.520;2023-12-20T02:21:16;98068.50;;;5.71;79.05
61205;BME280;47068;55.780;37.520;2023-12-20T02:23:42;98066.38;;;5.67;78.64
61205;BME280;47068;55.780;37.520;2023-12-20T02:26:07;98085.69;;;5.59;78.66
61205;BME280;47068;55.780;37.520;2023-12-20T02:28:32;98095.91;;;5.54;78.18
61205;BME280;47068;55.780;37.520;2023-12-20T02:30:58;98094.31;;;5.53;78.20
61205;BME280;47068;55.780;37.520;2023-12-20T02:33:24;98086.31;;;5.61;78.62
61205;BME280;47068;55.780;37.520;2023-12-20T02:35:49;98089.28;;;5.66;78.62
61205;BME280;47068;55.780;37.520;2023-12-20T02:38:15;98096.81;;;5.77;77.53
61205;BME280;47068;55.780;37.520;2023-12-20T02:40:40;98086.72;;;5.81;78.04
61205;BME280;47068;55.780;37.520;2023-12-20T02:43:05;98093.66;;;5.82;78.01
61205;BME280;47068;55.780;37.520;2023-12-20T02:45:31;98090.50;;;5.86;77.76
61205;BME280;47068;55.780;37.520;2023-12-20T02:47:56;98084.91;;;5.89;77.27
61205;BME280;47068;55.780;37.520;2023-12-20T02:50:21;98098.91;;;5.90;77.41
61205;BME280;47068;55.780;37.520;2023-12-20T02:52:47;98099.09;;;5.88;77.21
61205;BME280;47068;55.780;37.520;2023-12-20T02:55:12;98102.38;;;5.90;77.79
61205;BME280;47068;55.780;37.520;2023-12-20T02:57:37;98092.31;;;5.94;77.13
61205;BME280;47068;55.780;37.520;2023-12-20T03:00:07;98096.41;;;5.97;77.46
61205;BME280;47068;55.780;37.520;2023-12-20T03:02:32;98085.69;;;5.98;76.78
61205;BME280;47068;55.780;37.520;2023-12-20T03:04:58;98077.44;;;6.01;76.82
61205;BME280;47068;55.780;37.520;2023-12-20T03:07:25;98086.69;;;5.97;76.93
61205;BME280;47068;55.780;37.520;2023-12-20T03:09:50;98072.31;;;6.00;76.62
61205;BME280;47068;55.780;37.520;2023-12-20T03:12:16;98066.22;;;5.99;76.77
61205;BME280;47068;55.780;37.520;2023-12-20T03:14:41;98076.78;;;5.99;77.10
61205;BME280;47068;55.780;37.520;2023-12-20T03:17:06;98082.72;;;6.01;76.78
61205;BME280;47068;55.780;37.520;2023-12-20T03:19:32;98096.06;;;6.00;77.61
61205;BME280;47068;55.780;37.520;2023-12-20T03:21:57;98084.69;;;5.99;77.77
61205;BME280;47068;55.780;37.520;2023-12-20T03:24:22;98078.47;;;5.92;77.07
61205;BME280;47068;55.780;37.520;2023-12-20T03:26:47;98084.06;;;5.89;77.48
61205;BME280;47068;55.780;37.520;2023-12-20T03:29:13;98075.34;;;5.88;78.39
61205;BME280;47068;55.780;37.520;2023-12-20T03:31:38;98081.09;;;5.92;77.62
61205;BME280;47068;55.780;37.520;2023-12-20T03:34:03;98082.25;;;5.89;78.18
61205;BME280;47068;55.780;37.520;2023-12-20T03:36:29;98077.66;;;5.91;78.16
61205;BME280;47068;55.780;37.520;2023-12-20T03:38:54;98074.00;;;5.92;77.88
61205;BME280;47068;55.780;37.520;2023-12-20T03:41:19;98085.56;;;5.91;77.98
61205;BME280;47068;55.780;37.520;2023-12-20T03:43:45;98083.59;;;5.85;78.42
61205;BME280;47068;55.780;37.520;2023-12-20T03:46:10;98082.59;;;5.86;78.67
61205;BME280;47068;55.780;37.520;2023-12-20T03:48:36;98096.41;;;5.97;78.42
61205;BME280;47068;55.780;37.520;2023-12-20T03:51:01;98082.25;;;5.89;78.03
61205;BME280;47068;55.780;37.520;2023-12-20T03:53:27;98083.09;;;5.90;78.11
61205;BME280;47068;55.780;37.520;2023-12-20T03:55:52;98092.19;;;5.79;78.46
61205;BME280;47068;55.780;37.520;2023-12-20T03:58:19;98094.84;;;5.79;78.82
61205;BME280;47068;55.780;37.520;2023-12-20T04:00:45;98087.88;;;5.86;78.10
61205;BME280;47068;55.780;37.520;2023-12-20T04:03:10;98090.78;;;6.00;77.54
61205;BME280;47068;55.780;37.520;2023-12-20T04:05:38;98092.06;;;6.04;77.26
61205;BME280;47068;55.780;37.520;2023-12-20T04:08:04;98079.28;;;5.92;77.31
61205;BME280;47068;55.780;37.520;2023-12-20T04:10:29;98091.81;;;5.90;77.49
61205;BME280;47068;55.780;37.520;2023-12-20T04:12:55;98095.13;;;5.92;78.06
61205;BME280;47068;55.780;37.520;2023-12-20T04:15:20;98103.34;;;5.98;77.80
61205;BME280;47068;55.780;37.520;2023-12-20T04:17:45;98099.34;;;6.02;78.25
61205;BME280;47068;55.780;37.520;2023-12-20T04:20:11;98096.38;;;6.05;77.74
61205;BME280;47068;55.780;37.520;2023-12-20T04:22:36;98102.47;;;6.05;78.02
61205;BME280;47068;55.780;37.520;2023-12-20T04:25:01;98097.66;;;6.09;78.21
61205;BME280;47068;55.780;37.520;2023-12-20T04:27:27;98099.00;;;6.05;77.58
61205;BME280;47068;55.780;37.520;2023-12-20T04:29:52;98109.44;;;5.98;78.05
61205;BME280;47068;55.780;37.520;2023-12-20T04:32:18;98106.97;;;5.97;77.94
61205;BME280;47068;55.780;37.520;2023-12-20T04:34:43;98096.94;;;5.92;78.34
61205;BME280;47068;55.780;37.520;2023-12-20T04:37:08;98108.31;;;5.84;78.18
61205;BME280;47068;55.780;37.520;2023-12-20T04:39:34;98100.81;;;5.73;77.48
61205;BME280;47068;55.780;37.520;2023-12-20T04:41:59;98114.81;;;5.74;78.11
61205;BME280;47068;55.780;37.520;2023-12-20T04:44:24;98110.03;;;5.69;78.12
61205;BME280;47068;55.780;37.520;2023-12-20T04:46:50;98103.31;;;5.67;78.34
61205;BME280;47068;55.780;37.520;2023-12-20T04:49:15;98115.81;;;5.73;78.92
61205;BME280;47068;55.780;37.520;2023-12-20T04:51:40;98117.47;;;5.74;78.74
61205;BME280;47068;55.780;37.520;2023-12-20T04:54:06;98107.25;;;5.71;78.24
61205;BME280;47068;55.780;37.520;2023-12-20T04:56:31;98118.63;;;5.71;78.44
61205;BME280;47068;55.780;37.520;2023-12-20T04:58:56;98111.53;;;5.72;78.44
61205;BME280;47068;55.780;37.520;2023-12-20T05:01:22;98116.28;;;5.76;78.12
61205;BME280;47068;55.780;37.520;2023-12-20T05:03:47;98106.56;;;5.69;78.87
61205;BME280;47068;55.780;37.520;2023-12-20T05:06:12;98108.22;;;5.70;78.60
61205;BME280;47068;55.780;37.520;2023-12-20T05:08:38;98112.66;;;5.77;78.21
61205;BME280;47068;55.780;37.520;2023-12-20T05:11:03;98117.06;;;5.85;78.04
61205;BME280;47068;55.780;37.520;2023-12-20T05:13:29;98105.53;;;5.86;77.63
61205;BME280;47068;55.780;37.520;2023-12-20T05:15:55;98111.97;;;5.83;77.55
61205;BME280;47068;55.780;37.520;2023-12-20T05:18:20;98109.47;;;5.82;77.47
61205;BME280;47068;55.780;37.520;2023-12-20T05:20:46;98109.03;;;5.78;77.67
61205;BME280;47068;55.780;37.520;2023-12-20T05:23:11;98117.22;;;5.83;77.59
61205;BME280;47068;55.780;37.520;2023-12-20T05:25:38;98120.38;;;5.87;77.31
61205;BME280;47068;55.780;37.520;2023-12-20T05:28:03;98121.69;;;5.91;77.74
61205;BME280;47068;55.780;37.520;2023-12-20T05:30:29;98115.53;;;5.99;77.68
61205;BME280;47068;55.780;37.520;2023-12-20T05:32:54;98118.84;;;6.01;76.65
61205;BME280;47068;55.780;37.520;2023-12-20T05:35:20;98122.09;;;6.03;76.89
61205;BME280;47068;55.780;37.520;2023-12-20T05:37:47;98134.47;;;6.02;76.79
61205;BME280;47068;55.780;37.520;2023-12-20T05:40:12;98138.31;;;6.00;76.98
61205;BME280;47068;55.780;37.520;2023-12-20T05:42:38;98130.09;;;5.95;76.99
61205;BME280;47068;55.780;37.520;2023-12-20T05:45:03;98137.69;;;5.89;76.51
61205;BME280;47068;55.780;37.520;2023-12-20T05:47:29;98137.38;;;5.76;75.91
61205;BME280;47068;55.780;37.520;2023-12-20T05:49:54;98135.28;;;5.64;76.63
61205;BME280;47068;55.780;37.520;2023-12-20T05:52:20;98126.25;;;5.58;76.44
61205;BME280;47068;55.780;37.520;2023-12-20T05:54:45;98138.94;;;5.54;76.86
61205;BME280;47068;55.780;37.520;2023-12-20T05:57:10;98133.34;;;5.58;76.78
61205;BME280;47068;55.780;37.520;2023-12-20T05:59:35;98138.94;;;5.54;77.17
61205;BME280;47068;55.780;37.520;2023-12-20T06:02:02;98134.84;;;5.52;76.92
61205;BME280;47068;55.780;37.520;2023-12-20T06:04:28;98143.06;;;5.57;77.29
61205;BME280;47068;55.780;37.520;2023-12-20T06:06:54;98139.91;;;5.62;76.89
61205;BME280;47068;55.780;37.520;2023-12-20T06:09:19;98132.81;;;5.62;77.10
61205;BME280;47068;55.780;37.520;2023-12-20T06:11:44;98138.13;;;5.54;77.27
61205;BME280;47068;55.780;37.520;2023-12-20T06:14:10;98142.09;;;5.58;77.04
61205;BME280;47068;55.780;37.520;2023-12-20T06:16:35;98148.00;;;5.60;77.45
61205;BME280;47068;55.780;37.520;2023-12-20T06:19:00;98138.41;;;5.67;76.81
61205;BME280;47068;55.780;37.520;2023-12-20T06:21:26;98147.66;;;5.63;77.42
61205;BME280;47068;55.780;37.520;2023-12-20T06:23:51;98155.41;;;5.65;76.89
61205;BME280;47068;55.780;37.520;2023-12-20T06:26:16;98155.41;;;5.65;77.19
61205;BME280;47068;55.780;37.520;2023-12-20T06:28:42;98153.91;;;5.70;76.54
61205;BME280;47068;55.780;37.520;2023-12-20T06:31:07;98157.53;;;5.69;76.77
61205;BME280;47068;55.780;37.520;2023-12-20T06:33:33;98062.59;;;5.14;76.23
61205;BME280;47068;55.780;37.520;2023-12-20T06:35:58;98154.22;;;5.75;76.40
61205;BME280;47068;55.780;37.520;2023-12-20T06:38:23;98159.00;;;5.80;76.67
61205;BME280;47068;55.780;37.520;2023-12-20T06:40:49;98156.16;;;5.89;75.99
61205;BME280;47068;55.780;37.520;2023-12-20T06:43:14;98157.63;;;6.00;75.68
61205;BME280;47068;55.780;37.520;2023-12-20T06:45:39;98162.88;;;6.08;75.88
61205;BME280;47068;55.780;37.520;2023-12-20T06:48:05;98160.66;;;6.20;74.79
61205;BME280;47068;55.780;37.520;2023-12-20T06:50:31;98156.03;;;6.22;74.14
61205;BME280;47068;55.780;37.520;2023-12-20T06:52:56;98154.88;;;6.16;74.09
61205;BME280;47068;55.780;37.520;2023-12-20T06:55:21;98135.41;;;6.17;73.51
61205;BME280;47068;55.780;37.520;2023-12-20T06:57:47;98153.25;;;6.15;73.66
61205;BME280;47068;55.780;37.520;2023-12-20T07:00:12;98147.78;;;6.17;74.13
61205;BME280;47068;55.780;37.520;2023-12-20T07:02:38;98152.44;;;6.15;74.29
61205;BME280;47068;55.780;37.520;2023-12-20T07:05:03;98150.28;;;6.10;74.02
61205;BME280;47068;55.780;37.520;2023-12-20T07:07:29;98156.56;;;6.09;73.93
61205;BME280;47068;55.780;37.520;2023-12-20T07:09:54;98152.44;;;6.15;73.84
61205;BME280;47068;55.780;37.520;2023-12-20T07:12:20;98158.00;;;6.20;73.53
61205;BME280;47068;55.780;37.520;2023-12-20T07:14:45;98145.09;;;6.25;73.62
61205;BME280;47068;55.780;37.520;2023-12-20T07:17:11;98151.50;;;6.30;73.09
61205;BME280;47068;55.780;37.520;2023-12-20T07:19:38;98157.59;;;6.31;73.93
61205;BME280;47068;55.780;37.520;2023-12-20T07:22:05;98152.97;;;6.33;73.00
61205;BME280;47068;55.780;37.520;2023-12-20T07:24:30;98157.34;;;6.18;73.04
61205;BME280;47068;55.780;37.520;2023-12-20T07:26:56;98160.34;;;6.15;73.51
61205;BME280;47068;55.780;37.520;2023-12-20T07:29:21;98153.00;;;6.25;73.58
61205;BME280;47068;55.780;37.520;2023-12-20T07:31:46;98168.16;;;6.31;73.46
61205;BME280;47068;55.780;37.520;2023-12-20T07:34:12;98177.06;;;6.30;73.09
61205;BME280;47068;55.780;37.520;2023-12-20T07:36:37;98172.63;;;6.30;73.71
61205;BME280;47068;55.780;37.520;2023-12-20T07:39:02;98182.84;;;6.33;73.65
61205;BME280;47068;55.780;37.520;2023-12-20T07:41:28;98181.03;;;6.34;73.47
61205;BME280;47068;55.780;37.520;2023-12-20T07:43:53;98181.72;;;6.28;72.83
61205;BME280;47068;55.780;37.520;2023-12-20T07:46:20;98194.94;;;6.28;72.73
61205;BME280;47068;55.780;37.520;2023-12-20T07:48:47;98192.75;;;6.31;72.13
61205;BME280;47068;55.780;37.520;2023-12-20T07:51:13;98187.84;;;6.28;71.91
61205;BME280;47068;55.780;37.520;2023-12-20T07:53:38;98189.53;;;6.21;73.04
61205;BME280;47068;55.780;37.520;2023-12-20T07:56:13;98192.31;;;6.20;72.45
61205;BME280;47068;55.780;37.520;2023-12-20T07:58:38;98197.47;;;6.13;72.47
61205;BME280;47068;55.780;37.520;2023-12-20T08:01:03;98197.34;;;6.07;72.56
61205;BME280;47068;55.780;37.520;2023-12-20T08:03:29;98186.75;;;6.15;72.32
61205;BME280;47068;55.780;37.520;2023-12-20T08:05:54;98195.34;;;6.09;72.97
61205;BME280;47068;55.780;37.520;2023-12-20T08:08:19;98192.53;;;6.10;72.72
61205;BME280;47068;55.780;37.520;2023-12-20T08:10:45;98194.97;;;6.20;72.65
61205;BME280;47068;55.780;37.520;2023-12-20T08:13:10;98201.78;;;6.37;72.33
61205;BME280;47068;55.780;37.520;2023-12-20T08:15:35;98192.13;;;6.52;72.17
61205;BME280;47068;55.780;37.520;2023-12-20T08:18:02;98199.56;;;6.57;72.06
61205;BME280;47068;55.780;37.520;2023-12-20T08:20:28;98196.38;;;6.61;71.44
61205;BME280;47068;55.780;37.520;2023-12-20T08:22:53;98202.78;;;6.67;70.94
61205;BME280;47068;55.780;37.520;2023-12-20T08:25:18;98201.63;;;6.69;71.48
61205;BME280;47068;55.780;37.520;2023-12-20T08:27:44;98200.25;;;6.73;71.59
61205;BME280;47068;55.780;37.520;2023-12-20T08:30:09;98204.25;;;6.69;71.07
61205;BME280;47068;55.780;37.520;2023-12-20T08:32:35;98198.03;;;6.62;71.57
61205;BME280;47068;55.780;37.520;2023-12-20T08:35:00;98202.63;;;6.68;71.90
61205;BME280;47068;55.780;37.520;2023-12-20T08:37:25;98195.63;;;6.76;70.96
61205;BME280;47068;55.780;37.520;2023-12-20T08:39:51;98194.81;;;6.75;71.68
61205;BME280;47068;55.780;37.520;2023-12-20T08:42:16;98185.72;;;6.78;71.04
61205;BME280;47068;55.780;37.520;2023-12-20T08:44:41;98188.41;;;6.69;70.93
61205;BME280;47068;55.780;37.520;2023-12-20T08:47:06;98186.38;;;6.71;71.84
61205;BME280;47068;55.780;37.520;2023-12-20T08:49:32;98185.72;;;6.78;71.77
61205;BME280;47068;55.780;37.520;2023-12-20T08:51:57;98177.69;;;6.86;71.81
61205;BME280;47068;55.780;37.520;2023-12-20T08:54:23;98184.63;;;6.87;71.90
61205;BME280;47068;55.780;37.520;2023-12-20T08:56:48;98186.28;;;6.88;71.64
61205;BME280;47068;55.780;37.520;2023-12-20T08:59:13;98182.63;;;6.89;71.82
61205;BME280;47068;55.780;37.520;2023-12-20T09:01:39;98182.97;;;6.86;71.76
61205;BME280;47068;55.780;37.520;2023-12-20T09:04:04;98179.63;;;6.92;71.49
61205;BME280;47068;55.780;37.520;2023-12-20T09:06:31;98176.34;;;6.90;72.21
61205;BME280;47068;55.780;37.520;2023-12-20T09:08:56;98181.81;;;6.88;72.33
61205;BME280;47068;55.780;37.520;2023-12-20T09:11:22;98176.19;;;6.91;72.00
61205;BME280;47068;55.780;37.520;2023-12-20T09:13:47;98177.09;;;6.98;72.12
61205;BME280;47068;55.780;37.520;2023-12-20T09:16:12;98168.06;;;6.93;71.81
61205;BME280;47068;55.780;37.520;2023-12-20T09:18:40;98174.00;;;6.95;72.60
61205;BME280;47068;55.780;37.520;2023-12-20T09:21:06;98174.72;;;6.89;72.56
61205;BME280;47068;55.780;37.520;2023-12-20T09:23:31;98172.72;;;6.91;71.83
61205;BME280;47068;55.780;37.520;2023-12-20T09:25:56;98175.69;;;6.88;72.17
61205;BME280;47068;55.780;37.520;2023-12-20T09:28:22;98171.78;;;6.84;72.43
61205;BME280;47068;55.780;37.520;2023-12-20T09:30:47;98176.53;;;6.88;72.68
61205;BME280;47068;55.780;37.520;2023-12-20T09:33:13;98179.94;;;6.97;72.67
61205;BME280;47068;55.780;37.520;2023-12-20T09:35:38;98173.34;;;6.93;72.80
61205;BME280;47068;55.780;37.520;2023-12-20T09:38:04;98176.03;;;6.85;72.73
61205;BME280;47068;55.780;37.520;2023-12-20T09:40:29;98173.06;;;6.88;72.58
61205;BME280;47068;55.780;37.520;2023-12-20T09:42:57;98180.16;;;6.87;72.51
61205;BME280;47068;55.780;37.520;2023-12-20T09:45:23;98176.97;;;6.92;72.57
61205;BME280;47068;55.780;37.520;2023-12-20T09:47:54;98170.53;;;6.94;72.59
61205;BME280;47068;55.780;37.520;2023-12-20T09:50:20;98168.72;;;6.95;72.32
61205;BME280;47068;55.780;37.520;2023-12-20T09:52:55;98160.78;;;6.95;72.57
61205;BME280;47068;55.780;37.520;2023-12-20T09:55:24;98172.19;;;6.95;72.78
61205;BME280;47068;55.780;37.520;2023-12-20T09:57:50;98176.53;;;6.88;72.11
61205;BME280;47068;55.780;37.520;2023-12-20T10:00:15;98178.06;;;6.83;72.98
61205;BME280;47068;55.780;37.520;2023-12-20T10:02:44;98181.31;;;6.85;72.85
61205;BME280;47068;55.780;37.520;2023-12-20T10:05:14;98180.88;;;6.81;72.94
61205;BME280;47068;55.780;37.520;2023-12-20T10:07:40;98181.75;;;6.73;73.33
61205;BME280;47068;55.780;37.520;2023-12-20T10:10:06;98172.94;;;6.58;73.32
61205;BME280;47068;55.780;37.520;2023-12-20T10:12:33;98182.88;;;6.56;74.03
61205;BME280;47068;55.780;37.520;2023-12-20T10:14:59;98182.88;;;6.56;74.23
61205;BME280;47068;55.780;37.520;2023-12-20T10:17:25;98184.34;;;6.59;73.77
61205;BME280;47068;55.780;37.520;2023-12-20T10:19:54;98177.59;;;6.56;74.22
61205;BME280;47068;55.780;37.520;2023-12-20T10:22:19;98180.41;;;6.55;74.13
61205;BME280;47068;55.780;37.520;2023-12-20T10:24:45;98174.31;;;6.54;74.60
61205;BME280;47068;55.780;37.520;2023-12-20T10:27:11;98177.50;;;6.64;77.37
61205;BME280;47068;55.780;37.520;2023-12-20T10:29:37;98172.63;;;6.99;76.38
61205;BME280;47068;55.780;37.520;2023-12-20T10:32:21;98179.91;;;7.34;75.60
61205;BME280;47068;55.780;37.520;2023-12-20T10:34:47;98189.97;;;7.39;74.59
61205;BME280;47068;55.780;37.520;2023-12-20T10:37:13;98182.56;;;7.34;73.21
61205;BME280;47068;55.780;37.520;2023-12-20T10:39:38;98179.00;;;7.27;73.25
61205;BME280;47068;55.780;37.520;2023-12-20T10:42:04;98178.88;;;7.21;73.59
61205;BME280;47068;55.780;37.520;2023-12-20T10:44:29;98178.59;;;7.16;73.53
61205;BME280;47068;55.780;37.520;2023-12-20T10:46:55;98177.50;;;7.10;72.56
61205;BME280;47068;55.780;37.520;2023-12-20T10:49:24;98191.69;;;6.94;72.27
61205;BME280;47068;55.780;37.520;2023-12-20T10:51:49;98186.63;;;6.85;73.09
61205;BME280;47068;55.780;37.520;2023-12-20T10:54:16;98181.88;;;6.80;72.69
61205;BME280;47068;55.780;37.520;2023-12-20T10:56:42;98180.22;;;6.79;73.32
61205;BME280;47068;55.780;37.520;2023-12-20T10:59:07;98181.41;;;6.77;73.65
61205;BME280;47068;55.780;37.520;2023-12-20T11:01:35;98185.00;;;6.84;72.94
61205;BME280;47068;55.780;37.520;2023-12-20T11:04:03;98182.53;;;6.82;73.13
61205;BME280;47068;55.780;37.520;2023-12-20T11:06:43;98190.50;;;6.74;72.85
61205;BME280;47068;55.780;37.520;2023-12-20T11:12:06;98178.88;;;6.83;72.80
61205;BME280;47068;55.780;37.520;2023-12-20T11:14:40;98181.69;;;6.82;72.28
61205;BME280;47068;55.780;37.520;2023-12-20T11:17:10;98162.50;;;6.88;72.49
61205;BME280;47068;55.780;37.520;2023-12-20T11:22:21;98168.00;;;6.78;72.16
61205;BME280;47068;55.780;37.520;2023-12-20T11:24:47;98167.22;;;6.78;72.28
61205;BME280;47068;55.780;37.520;2023-12-20T11:27:13;98159.78;;;6.73;72.74
61205;BME280;47068;55.780;37.520;2023-12-20T11:29:40;98157.03;;;6.66;71.79
61205;BME280;47068;55.780;37.520;2023-12-20T11:34:53;98168.44;;;6.67;72.88
61205;BME280;47068;55.780;37.520;2023-12-20T11:37:19;98158.03;;;6.65;73.05
61205;BME280;47068;55.780;37.520;2023-12-20T11:39:44;98164.41;;;6.71;72.54
61205;BME280;47068;55.780;37.520;2023-12-20T11:42:10;98170.91;;;6.68;72.28
61205;BME280;47068;55.780;37.520;2023-12-20T11:44:36;98173.72;;;6.67;72.15
61205;BME280;47068;55.780;37.520;2023-12-20T11:47:01;98168.75;;;6.64;72.40
61205;BME280;47068;55.780;37.520;2023-12-20T11:49:27;98171.91;;;6.67;72.08
61205;BME280;47068;55.780;37.520;2023-12-20T11:51:54;98174.38;;;6.69;72.14
61205;BME280;47068;55.780;37.520;2023-12-20T11:54:20;98181.47;;;6.68;72.26
61205;BME280;47068;55.780;37.520;2023-12-20T11:56:46;98185.34;;;6.81;72.09
61205;BME280;47068;55.780;37.520;2023-12-20T11:59:11;98174.47;;;6.76;72.50
61205;BME280;47068;55.780;37.520;2023-12-20T12:01:37;98173.88;;;6.65;72.71
61205;BME280;47068;55.780;37.520;2023-12-20T12:04:03;98182.19;;;6.62;72.58
61205;BME280;47068;55.780;37.520;2023-12-20T12:06:28;98182.50;;;6.59;73.24
61205;BME280;47068;55.780;37.520;2023-12-20T12:08:54;98179.22;;;6.57;72.68
61205;BME280;47068;55.780;37.520;2023-12-20T12:11:19;98194.06;;;6.58;72.94
61205;BME280;47068;55.780;37.520;2023-12-20T12:13:44;98194.94;;;6.51;73.40
61205;BME280;47068;55.780;37.520;2023-12-20T12:16:10;98196.97;;;6.49;73.66
61205;BME280;47068;55.780;37.520;2023-12-20T12:18:36;98200.56;;;6.56;74.24
61205;BME280;47068;55.780;37.520;2023-12-20T12:21:01;98197.53;;;6.59;74.10
61205;BME280;47068;55.780;37.520;2023-12-20T12:23:29;98191.09;;;6.61;74.32
61205;BME280;47068;55.780;37.520;2023-12-20T12:25:55;98196.72;;;6.58;73.81
61205;BME280;47068;55.780;37.520;2023-12-20T12:28:21;98200.22;;;6.51;75.26
61205;BME280;47068;55.780;37.520;2023-12-20T12:30:58;98199.59;;;6.49;74.80
61205;BME280;47068;55.780;37.520;2023-12-20T12:33:27;98205.38;;;6.44;75.47
61205;BME280;47068;55.780;37.520;2023-12-20T12:35:53;98210.88;;;6.43;75.60
61205;BME280;47068;55.780;37.520;2023-12-20T12:38:21;98217.84;;;6.36;76.77
61205;BME280;47068;55.780;37.520;2023-12-20T12:40:47;98224.63;;;6.30;76.93
61205;BME280;47068;55.780;37.520;2023-12-20T12:43:12;98226.78;;;6.26;77.57
61205;BME280;47068;55.780;37.520;2023-12-20T12:45:38;98229.56;;;6.33;77.54
61205;BME280;47068;55.780;37.520;2023-12-20T12:48:03;98234.22;;;6.23;78.51
61205;BME280;47068;55.780;37.520;2023-12-20T12:50:29;98235.03;;;6.23;78.93
61205;BME280;47068;55.780;37.520;2023-12-20T12:52:55;98238.69;;;6.22;78.20
61205;BME280;47068;55.780;37.520;2023-12-20T12:55:20;98239.38;;;6.16;79.08
61205;BME280;47068;55.780;37.520;2023-12-20T12:57:46;98245.81;;;6.14;78.67
61205;BME280;47068;55.780;37.520;2023-12-20T13:00:11;98247.47;;;6.15;78.71